Time;durP1;ratioP1;P1;durP2;ratioP2;P2;SDS_P1;SDS_P2;PMS_P1;PMS_P2;Temp;Humidity;BMP_temperature;BMP_pressure;BME280_temperature;BME280_humidity;BME280_pressure;Samples;Min_cycle;Max_cycle;Signal;HPM_P1;HPM_P2
2023/06/21 00:01:43;;;;;;;16.73;15.13;;;;;;;18.56;87.59;93082.16;5073961;28;20193;-80
2023/06/21 00:04:08;;;;;;;16.00;14.53;;;;;;;18.58;87.48;93077.34;5073407;28;20197;-80
2023/06/21 00:06:34;;;;;;;15.33;13.77;;;;;;;18.42;87.80;93084.22;5073752;28;20186;-80
2023/06/21 00:09:03;;;;;;;18.30;14.53;;;;;;;18.46;87.62;93077.22;5074254;28;20262;-80
2023/06/21 00:11:29;;;;;;;16.40;15.00;;;;;;;18.40;88.10;93086.38;5073130;28;20212;-80
2023/06/21 00:13:55;;;;;;;16.73;15.23;;;;;;;18.30;88.92;93074.28;5073213;28;20221;-80
2023/06/21 00:16:21;;;;;;;17.53;15.63;;;;;;;18.25;88.75;93068.34;5072750;28;20210;-80
2023/06/21 00:18:47;;;;;;;17.17;15.67;;;;;;;18.21;88.67;93059.50;5065771;28;20169;-80
2023/06/21 00:21:13;;;;;;;17.00;15.33;;;;;;;18.46;87.84;93074.56;5072281;28;20224;-80
2023/06/21 00:23:39;;;;;;;15.97;14.50;;;;;;;18.25;88.35;93071.00;5072754;28;20201;-80
2023/06/21 00:26:05;;;;;;;17.23;15.63;;;;;;;18.28;88.02;93080.94;5056805;28;20308;-80
2023/06/21 00:28:30;;;;;;;17.87;16.00;;;;;;;18.22;88.33;93082.97;5073297;28;20245;-80
2023/06/21 00:30:55;;;;;;;17.67;15.87;;;;;;;18.14;89.16;93075.84;5073281;28;20229;-80
2023/06/21 00:33:21;;;;;;;18.97;15.83;;;;;;;18.24;88.20;93072.84;5072996;28;20178;-80
2023/06/21 00:35:46;;;;;;;18.70;16.23;;;;;;;18.26;88.32;93070.69;5073167;28;20218;-80
2023/06/21 00:38:12;;;;;;;18.10;16.27;;;;;;;18.21;88.42;93076.13;5073278;28;20190;-80
2023/06/21 00:40:38;;;;;;;18.17;16.43;;;;;;;18.19;88.96;93074.91;5072894;28;20289;-80
2023/06/21 00:43:05;;;;;;;17.47;15.77;;;;;;;18.05;89.18;93064.50;5084682;28;20180;-80
2023/06/21 00:45:40;;;;;;;16.17;14.77;;;;;;;18.17;89.41;93069.13;5078571;28;20208;-80
2023/06/21 00:48:06;;;;;;;17.90;16.30;;;;;;;18.07;89.37;93067.59;5079461;28;20177;-80
2023/06/21 00:50:31;;;;;;;17.40;15.70;;;;;;;18.18;89.37;93070.72;5067002;28;20226;-80
2023/06/21 00:52:57;;;;;;;20.13;16.90;;;;;;;18.01;90.26;93068.09;5066461;28;20185;-80
2023/06/21 00:55:23;;;;;;;18.80;16.80;;;;;;;17.82;90.30;93038.56;5071793;28;20213;-80
2023/06/21 00:57:49;;;;;;;17.17;15.67;;;;;;;17.82;90.63;93055.19;5055548;28;20249;-80
2023/06/21 01:00:20;;;;;;;19.03;17.00;;;;;;;17.92;90.68;93060.16;5071712;28;20221;-80
2023/06/21 01:02:50;;;;;;;18.93;17.07;;;;;;;17.90;90.62;93056.28;5072613;28;20193;-80
2023/06/21 01:05:16;;;;;;;17.93;16.13;;;;;;;17.92;90.93;93080.50;5071750;28;20389;-80
2023/06/21 01:07:47;;;;;;;18.77;17.27;;;;;;;17.97;91.25;93081.16;5072307;28;20216;-80
2023/06/21 01:10:18;;;;;;;18.57;16.90;;;;;;;17.93;91.74;93076.78;5072688;28;20224;-80
2023/06/21 01:13:01;;;;;;;19.87;18.03;;;;;;;17.99;92.00;93078.97;5073827;28;20268;-80
2023/06/21 01:15:32;;;;;;;19.13;17.43;;;;;;;17.91;91.24;93052.53;5071536;28;20282;-80
2023/06/21 01:18:00;;;;;;;19.43;17.63;;;;;;;17.72;91.56;93049.44;5073949;28;20246;-80
2023/06/21 01:20:29;;;;;;;19.20;17.37;;;;;;;17.79;91.98;93078.81;5064733;28;20280;-80
2023/06/21 01:23:19;;;;;;;18.77;16.97;;;;;;;17.83;92.17;93067.31;5060098;28;20185;-81
2023/06/21 01:26:22;;;;;;;20.07;18.27;;;;;;;17.83;92.37;93071.81;5072211;28;20255;-80
2023/06/21 01:29:10;;;;;;;20.63;18.77;;;;;;;17.69;93.19;93056.13;5073226;28;20189;-80
2023/06/21 01:31:38;;;;;;;20.00;17.93;;;;;;;17.71;92.54;93047.91;5081979;28;20227;-81
2023/06/21 01:34:04;;;;;;;19.60;17.77;;;;;;;17.73;92.01;93045.72;5074593;28;20280;-79
2023/06/21 01:36:31;;;;;;;19.03;17.23;;;;;;;17.83;92.23;93066.53;5052425;28;20237;-80
2023/06/21 01:38:57;;;;;;;18.47;16.67;;;;;;;17.82;92.88;93078.19;5053451;28;20186;-80
2023/06/21 01:41:23;;;;;;;20.07;17.40;;;;;;;17.79;92.85;93078.81;5050467;28;20225;-79
2023/06/21 01:43:49;;;;;;;20.37;18.50;;;;;;;17.78;92.82;93074.59;5052941;28;20261;-79
2023/06/21 01:46:17;;;;;;;19.47;17.60;;;;;;;17.74;93.27;93084.25;5062937;28;20265;-79
2023/06/21 01:48:43;;;;;;;18.47;16.90;;;;;;;17.66;93.00;93074.44;5054606;28;20186;-79
2023/06/21 01:51:09;;;;;;;19.97;18.00;;;;;;;17.83;92.34;93069.16;5046470;28;20232;-80
2023/06/21 01:53:36;;;;;;;20.27;18.37;;;;;;;17.63;92.69;93067.94;5054132;28;20197;-80
2023/06/21 01:56:08;;;;;;;20.93;18.97;;;;;;;17.50;93.23;93064.34;5050642;28;20214;-79
2023/06/21 01:58:34;;;;;;;20.03;18.03;;;;;;;17.52;92.68;93078.03;5052557;28;20187;-81
2023/06/21 02:01:01;;;;;;;19.83;17.97;;;;;;;17.58;93.13;93087.34;5049617;28;20285;-79
2023/06/21 02:03:28;;;;;;;20.87;18.83;;;;;;;17.47;94.17;93080.03;5050549;28;20178;-80
2023/06/21 02:05:55;;;;;;;19.47;17.30;;;;;;;17.30;94.84;93072.84;5046659;28;20219;-79
2023/06/21 02:08:22;;;;;;;18.60;16.80;;;;;;;17.39;95.09;93081.53;5051332;28;20209;-79
2023/06/21 02:10:47;;;;;;;21.17;19.00;;;;;;;17.52;94.37;93075.38;5051082;28;20281;-79
2023/06/21 02:13:14;;;;;;;20.03;17.93;;;;;;;17.63;94.10;93075.06;5062869;28;20178;-79
2023/06/21 02:15:43;;;;;;;20.00;18.07;;;;;;;17.56;94.21;93076.31;5049837;28;20230;-80
2023/06/21 02:18:09;;;;;;;20.20;18.30;;;;;;;17.54;94.39;93061.88;5050799;28;20174;-79
2023/06/21 02:20:35;;;;;;;19.30;17.53;;;;;;;17.53;94.82;93076.94;5050135;28;20222;-80
2023/06/21 02:23:01;;;;;;;20.17;18.43;;;;;;;17.45;94.66;93061.84;5048711;28;20194;-80
2023/06/21 02:25:27;;;;;;;19.40;17.47;;;;;;;17.52;94.73;93074.59;5050560;28;20232;-80
2023/06/21 02:27:53;;;;;;;20.10;18.20;;;;;;;17.33;96.73;93088.06;5032558;28;20274;-82
2023/06/21 02:30:18;;;;;;;20.03;17.93;;;;;;;17.27;95.78;93047.06;5044192;28;20222;-79
2023/06/21 02:32:43;;;;;;;20.57;18.47;;;;;;;17.46;95.37;93089.03;5056816;28;20181;-76
2023/06/21 02:35:09;;;;;;;20.50;18.60;;;;;;;17.53;94.92;93099.91;5057515;28;20280;-76
2023/06/21 02:37:35;;;;;;;19.60;17.83;;;;;;;17.61;94.71;93101.78;5056521;28;20193;-74
2023/06/21 02:40:09;;;;;;;19.67;17.83;;;;;;;17.63;94.74;93103.03;5068337;28;20802;-76
2023/06/21 02:42:35;;;;;;;18.93;17.13;;;;;;;17.47;94.38;93083.44;5047172;28;20197;-76
2023/06/21 02:45:00;;;;;;;20.23;18.00;;;;;;;17.49;94.68;93106.91;5044682;28;20289;-75
2023/06/21 02:47:25;;;;;;;18.73;16.93;;;;;;;17.54;94.43;93112.81;5038376;28;20174;-76
2023/06/21 02:49:51;;;;;;;19.43;17.53;;;;;;;17.42;94.44;93104.69;5050557;28;20222;-76
2023/06/21 02:52:16;;;;;;;18.20;16.40;;;;;;;17.16;95.15;93068.75;5048568;28;20192;-75
2023/06/21 02:54:41;;;;;;;19.03;17.37;;;;;;;17.49;94.66;93101.63;5049983;28;20225;-76
2023/06/21 02:57:07;;;;;;;18.97;16.97;;;;;;;17.48;94.96;93108.75;5051499;28;20197;-75
2023/06/21 02:59:32;;;;;;;18.27;16.43;;;;;;;17.54;94.45;93112.81;5050151;28;20233;-74
2023/06/21 03:01:59;;;;;;;19.37;17.67;;;;;;;17.36;94.30;93074.25;5049999;28;20182;-76
2023/06/21 03:04:25;;;;;;;19.13;17.37;;;;;;;17.76;93.55;93121.69;5050296;28;20236;-75
2023/06/21 03:06:50;;;;;;;18.77;17.07;;;;;;;17.71;93.60;93106.78;5050454;28;20178;-76
2023/06/21 03:09:15;;;;;;;20.47;18.57;;;;;;;18.13;92.20;93127.16;5051139;28;20194;-76
2023/06/21 03:11:41;;;;;;;19.60;17.77;;;;;;;18.21;91.50;93130.88;5049950;28;20257;-77
2023/06/21 03:14:06;;;;;;;20.10;18.17;;;;;;;18.24;91.35;93128.38;5046902;28;20232;-76
2023/06/21 03:16:31;;;;;;;20.10;18.10;;;;;;;18.35;90.93;93128.84;5060493;28;20381;-76
2023/06/21 03:18:57;;;;;;;18.63;16.93;;;;;;;18.20;90.50;93114.22;5054751;28;20231;-76
2023/06/21 03:21:23;;;;;;;21.37;17.87;;;;;;;18.41;90.09;93140.84;5050984;28;20230;-75
2023/06/21 03:23:49;;;;;;;21.20;16.13;;;;;;;18.32;89.69;93095.88;5065117;28;20197;-76
2023/06/21 03:26:15;;;;;;;19.47;17.57;;;;;;;18.60;88.85;93097.06;5059020;28;20221;-76
2023/06/21 03:28:41;;;;;;;18.43;16.67;;;;;;;19.01;88.02;93139.59;5051839;28;21179;-76
2023/06/21 03:31:07;;;;;;;21.10;18.23;;;;;;;19.20;86.72;93139.22;5059907;28;20238;-76
2023/06/21 03:33:32;;;;;;;18.73;16.93;;;;;;;19.53;85.23;93144.69;5058657;28;20178;-76
2023/06/21 03:35:57;;;;;;;19.10;17.40;;;;;;;19.63;84.33;93136.38;5050876;28;20282;-76
2023/06/21 03:38:23;;;;;;;18.83;16.50;;;;;;;19.50;84.50;93140.84;5065775;28;20213;-76
2023/06/21 03:40:48;;;;;;;17.97;16.37;;;;;;;19.25;85.41;93117.88;5056720;28;20223;-76
2023/06/21 03:43:14;;;;;;;18.80;17.00;;;;;;;19.43;85.41;93134.47;5050108;28;20736;-73
2023/06/21 03:45:39;;;;;;;18.83;17.13;;;;;;;19.42;86.46;93148.81;5049524;28;20223;-70
2023/06/21 03:48:05;;;;;;;19.73;18.00;;;;;;;19.57;85.47;93135.00;5049984;28;20197;-71
2023/06/21 03:50:32;;;;;;;18.53;16.80;;;;;;;19.87;84.32;93145.28;5048813;28;20281;-73
2023/06/21 03:52:57;;;;;;;18.63;17.00;;;;;;;19.93;83.79;93141.34;5057616;28;20194;-72
2023/06/21 03:55:23;;;;;;;19.80;18.13;;;;;;;20.12;83.76;93141.66;5052541;28;20225;-72
2023/06/21 03:57:48;;;;;;;18.63;16.90;;;;;;;20.39;82.71;93157.06;5052587;28;20219;-72
2023/06/21 04:00:14;;;;;;;19.13;17.13;;;;;;;20.64;81.35;93148.09;5055047;28;20219;-71
2023/06/21 04:02:39;;;;;;;21.10;16.63;;;;;;;20.83;81.00;93152.91;5054692;28;20184;-73
2023/06/21 04:05:06;;;;;;;18.17;16.60;;;;;;;20.98;80.42;93154.22;5048954;28;20237;-74
2023/06/21 04:07:31;;;;;;;18.93;16.90;;;;;;;21.10;79.63;93160.31;5064017;28;20185;-75
2023/06/21 04:09:57;;;;;;;18.30;16.60;;;;;;;21.36;77.33;93162.66;5057836;28;20259;-70
2023/06/21 04:12:22;;;;;;;18.07;16.67;;;;;;;21.60;75.16;93170.66;5057477;28;20216;-68
2023/06/21 04:14:48;;;;;;;19.57;17.87;;;;;;;21.88;73.82;93137.00;5048881;28;20221;-68
2023/06/21 04:17:13;;;;;;;18.70;17.08;;;;;;;22.24;73.39;93164.28;5046778;28;20190;-70
2023/06/21 04:19:39;;;;;;;18.05;16.33;;;;;;;22.11;72.69;93172.63;5045810;28;20225;-68
2023/06/21 04:22:04;;;;;;;17.58;16.00;;;;;;;22.24;72.77;93172.25;5056854;28;20923;-68
2023/06/21 04:24:31;;;;;;;18.80;17.10;;;;;;;21.91;73.92;93168.22;5051870;28;20932;-68
2023/06/21 04:26:58;;;;;;;18.77;17.05;;;;;;;22.07;72.79;93171.75;5057384;28;20242;-72
2023/06/21 04:29:24;;;;;;;19.33;17.52;;;;;;;21.98;72.68;93163.91;5050723;28;20260;-74
2023/06/21 04:31:52;;;;;;;19.25;17.65;;;;;;;22.46;72.35;93170.22;5054126;28;20193;-73
2023/06/21 04:34:18;;;;;;;19.95;17.83;;;;;;;22.24;71.52;93172.25;5050712;28;20208;-71
2023/06/21 04:36:47;;;;;;;18.67;17.05;;;;;;;;;;5051577;28;20185;-73
2023/06/21 04:39:15;;;;;;;17.42;15.82;;;;;;;24.41;61.74;93186.19;5042302;28;20191;-72
2023/06/21 04:41:40;;;;;;;19.45;17.60;;;;;;;24.19;61.84;93189.53;5039162;28;20211;-72
2023/06/21 04:44:06;;;;;;;18.63;16.85;;;;;;;23.43;65.56;93185.44;5051141;28;20905;-73
2023/06/21 04:46:31;;;;;;;18.38;16.52;;;;;;;22.96;67.95;93179.25;5051376;28;20187;-73
2023/06/21 04:48:56;;;;;;;20.33;18.23;;;;;;;22.96;68.21;93183.78;5053803;28;20718;-73
2023/06/21 04:51:22;;;;;;;19.85;17.63;;;;;;;23.04;66.98;93183.66;5058795;28;20281;-72
2023/06/21 04:53:48;;;;;;;20.55;18.40;;;;;;;22.61;70.00;93183.63;5061016;28;20196;-73
2023/06/21 04:56:14;;;;;;;22.08;19.83;;;;;;;22.62;69.33;93182.50;5049686;28;20232;-72
2023/06/21 04:58:40;;;;;;;22.20;20.00;;;;;;;22.63;68.44;93184.03;5049599;28;20588;-73
2023/06/21 05:01:08;;;;;;;23.00;18.92;;;;;;;22.41;69.19;93171.25;5049307;28;20343;-85
2023/06/21 05:03:34;;;;;;;22.58;19.52;;;;;;;22.60;69.51;93183.97;5048500;28;20185;-72
2023/06/21 05:06:00;;;;;;;21.48;18.90;;;;;;;23.28;66.46;93172.91;5046555;28;20256;-72
2023/06/21 05:08:26;;;;;;;22.23;20.00;;;;;;;23.00;69.59;93188.13;5049622;28;20215;-72
2023/06/21 05:10:52;;;;;;;21.08;18.88;;;;;;;24.16;64.71;93184.88;5057578;28;20225;-72
2023/06/21 05:13:17;;;;;;;20.23;18.23;;;;;;;23.51;66.19;93191.72;5082982;28;20229;-72
2023/06/21 05:15:43;;;;;;;28.70;19.92;;;;;;;24.75;62.38;93191.50;5050539;28;20243;-73
2023/06/21 05:18:08;;;;;;;20.05;18.02;;;;;;;27.63;52.37;93195.06;5051066;28;20184;-72
2023/06/21 05:20:34;;;;;;;18.33;16.42;;;;;;;28.43;48.78;93194.94;5050098;28;20239;-72
2023/06/21 05:22:59;;;;;;;20.17;17.48;;;;;;;27.09;51.36;93190.28;5050782;28;20220;-72
2023/06/21 05:25:25;;;;;;;21.55;17.27;;;;;;;24.30;62.26;93180.63;5050353;28;20224;-72
2023/06/21 05:27:50;;;;;;;21.30;16.73;;;;;;;24.40;61.19;93172.09;5050958;28;20190;-71
2023/06/21 05:30:16;;;;;;;21.30;17.63;;;;;;;24.03;62.81;93180.78;5050159;28;20227;-72
2023/06/21 05:32:41;;;;;;;20.70;16.75;;;;;;;24.72;60.27;93186.09;5050500;28;20196;-70
2023/06/21 05:35:07;;;;;;;20.77;18.45;;;;;;;25.41;57.33;93175.22;5048168;28;21014;-71
2023/06/21 05:37:32;;;;;;;18.58;16.67;;;;;;;27.34;52.07;93196.72;5050455;28;20239;-72
2023/06/21 05:40:00;;;;;;;22.67;17.38;;;;;;;31.17;42.59;93200.69;5049279;28;20247;-71
2023/06/21 05:42:26;;;;;;;22.63;16.92;;;;;;;33.95;36.42;93225.97;5050927;28;20300;-72
2023/06/21 05:44:52;;;;;;;21.05;16.98;;;;;;;34.85;33.76;93216.78;5050570;28;20232;-71
2023/06/21 05:47:17;;;;;;;22.17;17.60;;;;;;;35.60;31.98;93225.78;5060100;28;20205;-72
2023/06/21 05:49:43;;;;;;;22.45;18.13;;;;;;;35.38;32.17;93233.63;5049334;28;20230;-72
2023/06/21 05:52:08;;;;;;;20.83;17.10;;;;;;;37.76;28.37;93234.41;5055134;28;20186;-72
2023/06/21 05:54:33;;;;;;;21.70;16.80;;;;;;;34.88;32.08;93224.13;5049708;28;20264;-71
2023/06/21 05:56:59;;;;;;;21.30;16.45;;;;;;;37.98;27.92;93226.38;5050125;28;20196;-71
2023/06/21 05:59:24;;;;;;;26.48;16.52;;;;;;;38.23;27.07;93221.69;5050133;28;20225;-71
2023/06/21 06:01:49;;;;;;;18.08;16.27;;;;;;;38.36;26.73;93222.44;5049970;28;20746;-72
2023/06/21 06:04:15;;;;;;;18.85;16.50;;;;;;;39.12;25.99;93222.28;5046989;28;20186;-71
2023/06/21 06:06:41;;;;;;;20.63;15.80;;;;;;;38.85;26.11;93217.34;5050276;28;20216;-72
2023/06/21 06:09:11;;;;;;;29.05;21.85;;;;;;;37.12;28.25;93218.28;5048819;28;20206;-73
2023/06/21 06:11:36;;;;;;;16.85;15.15;;;;;;;39.11;25.53;93215.31;5050401;28;20198;-71
2023/06/21 06:14:02;;;;;;;19.50;16.42;;;;;;;38.89;25.59;93228.13;5051682;28;20189;-72
2023/06/21 06:16:28;;;;;;;17.83;15.93;;;;;;;39.24;25.53;93233.16;5049569;28;20194;-72
2023/06/21 06:18:54;;;;;;;21.77;15.95;;;;;;;39.36;25.39;93217.91;5052545;28;20198;-72
2023/06/21 06:21:22;;;;;;;19.13;15.70;;;;;;;39.09;25.34;93215.75;5048930;28;20230;-72
2023/06/21 06:23:52;;;;;;;18.77;16.73;;;;;;;36.71;29.45;93215.47;5050917;28;20183;-74
2023/06/21 06:26:23;;;;;;;27.95;17.63;;;;;;;38.12;27.23;93204.16;5048035;28;20209;-76
2023/06/21 06:28:52;;;;;;;25.13;16.80;;;;;;;37.75;27.78;93197.44;5050189;28;20190;-81
2023/06/21 06:31:20;;;;;;;22.55;17.90;;;;;;;37.25;28.24;93204.75;5052323;28;20206;-83
2023/06/21 06:33:45;;;;;;;20.17;16.42;;;;;;;38.68;26.71;93207.78;5056782;28;20916;-84
2023/06/21 06:36:10;;;;;;;18.83;16.73;;;;;;;38.98;25.46;93215.31;5052557;28;20217;-83
2023/06/21 06:38:36;;;;;;;19.40;16.77;;;;;;;38.43;26.41;93219.47;5055539;28;20189;-83
2023/06/21 06:41:01;;;;;;;20.88;15.77;;;;;;;38.46;27.33;93207.69;5052761;28;20226;-84
2023/06/21 06:43:26;;;;;;;20.20;16.60;;;;;;;39.27;25.56;93217.88;5053259;28;20178;-83
2023/06/21 06:45:52;;;;;;;21.48;16.38;;;;;;;38.76;26.61;93208.31;5045267;28;20941;-84
2023/06/21 06:48:17;;;;;;;17.77;15.63;;;;;;;38.42;26.57;93211.72;5033226;28;20233;-85
2023/06/21 06:50:43;;;;;;;17.90;16.00;;;;;;;36.74;28.35;93198.28;5053849;28;20252;-84
2023/06/21 06:53:08;;;;;;;23.35;17.98;;;;;;;30.70;38.88;93182.34;5049313;28;20183;-83
2023/06/21 06:55:34;;;;;;;24.63;17.83;;;;;;;30.68;40.71;93184.66;5047290;28;20277;-83
2023/06/21 06:58:01;;;;;;;23.17;18.75;;;;;;;29.57;43.23;93185.03;5049543;28;20209;-84
2023/06/21 07:00:27;;;;;;;20.65;17.98;;;;;;;27.68;49.24;93182.09;5037179;28;20218;-83
2023/06/21 07:02:56;;;;;;;18.60;16.48;;;;;;;27.31;51.38;93167.16;5051883;28;20312;-83
2023/06/21 07:05:23;;;;;;;21.40;18.50;;;;;;;25.84;57.11;93174.78;5057938;28;20280;-83
2023/06/21 07:07:48;;;;;;;21.40;18.48;;;;;;;27.04;52.98;93163.00;5048944;28;20190;-83
2023/06/21 07:10:14;;;;;;;20.40;18.30;;;;;;;25.78;59.61;93173.53;5042327;28;20218;-83
2023/06/21 07:12:39;;;;;;;21.55;18.83;;;;;;;25.61;59.62;93176.69;5045457;28;20201;-83
2023/06/21 07:15:05;;;;;;;23.92;19.70;;;;;;;26.17;56.79;93166.91;5042711;28;20392;-83
2023/06/21 07:17:30;;;;;;;23.25;19.83;;;;;;;26.45;56.70;93169.19;5033037;28;20213;-82
2023/06/21 07:19:56;;;;;;;21.73;18.58;;;;;;;25.31;60.47;93161.66;5049606;28;20232;-82
2023/06/21 07:22:22;;;;;;;27.40;19.00;;;;;;;26.16;55.96;93138.59;5049159;28;20209;-82
2023/06/21 07:24:47;;;;;;;22.50;18.60;;;;;;;26.42;56.26;93151.16;5037579;28;20255;-83
2023/06/21 07:27:12;;;;;;;30.95;21.08;;;;;;;25.80;57.65;93144.53;5050097;28;20212;-82
2023/06/21 07:29:38;;;;;;;21.75;19.38;;;;;;;26.00;57.42;93137.97;5049961;28;20229;-83
2023/06/21 07:32:03;;;;;;;25.38;18.08;;;;;;;25.99;58.02;93128.41;5049233;28;20194;-82
2023/06/21 07:34:30;;;;;;;23.00;18.95;;;;;;;25.70;59.91;93133.66;5049474;28;20231;-82
2023/06/21 07:36:55;;;;;;;24.02;18.45;;;;;;;26.19;58.52;93140.53;5046746;28;20220;-83
2023/06/21 07:39:21;;;;;;;21.20;18.55;;;;;;;26.14;58.63;93153.44;5049642;28;20237;-81
2023/06/21 07:41:46;;;;;;;20.48;18.15;;;;;;;26.26;59.46;93151.34;5046698;28;20202;-82
2023/06/21 07:44:12;;;;;;;21.05;18.58;;;;;;;26.50;56.74;93131.38;5049761;28;20197;-82
2023/06/21 07:46:37;;;;;;;23.42;19.65;;;;;;;26.58;57.00;93146.41;5050319;28;20189;-83
2023/06/21 07:49:03;;;;;;;22.58;18.17;;;;;;;26.26;58.47;93137.94;5049499;28;20213;-83
2023/06/21 07:51:29;;;;;;;25.70;17.40;;;;;;;26.07;61.00;93148.00;5049573;28;20197;-83
2023/06/21 07:53:54;;;;;;;20.85;18.73;;;;;;;26.17;57.21;93121.38;5049741;28;20224;-83
2023/06/21 07:56:19;;;;;;;24.60;18.88;;;;;;;25.64;58.91;93138.53;5048586;28;20209;-83
2023/06/21 07:58:46;;;;;;;25.33;19.17;;;;;;;26.34;56.62;93147.63;5055155;28;20194;-82
2023/06/21 08:01:12;;;;;;;24.58;19.80;;;;;;;26.43;56.88;93153.47;5052315;28;20236;-81
2023/06/21 08:03:38;;;;;;;22.48;18.95;;;;;;;26.39;55.34;93160.69;5054288;28;20189;-82
2023/06/21 08:06:04;;;;;;;24.17;19.55;;;;;;;26.24;56.02;93116.09;5053234;28;21703;-83
2023/06/21 08:08:29;;;;;;;22.75;18.35;;;;;;;26.58;54.45;93135.69;5042088;28;20197;-81
2023/06/21 08:10:56;;;;;;;23.65;17.42;;;;;;;26.46;55.31;93139.34;5054291;28;20230;-83
2023/06/21 08:13:22;;;;;;;26.38;19.10;;;;;;;26.42;56.02;93149.25;5052268;28;20191;-83
2023/06/21 08:15:48;;;;;;;22.20;19.10;;;;;;;26.46;55.31;93155.41;5052883;28;20829;-83
2023/06/21 08:18:14;;;;;;;22.38;18.55;;;;;;;26.63;56.04;93138.81;5053520;28;20201;-83
2023/06/21 08:20:40;;;;;;;26.80;19.20;;;;;;;26.92;56.42;93145.28;5052216;28;20236;-83
2023/06/21 08:23:07;;;;;;;28.63;20.60;;;;;;;26.36;54.77;93115.91;5054354;28;20265;-82
2023/06/21 08:25:32;;;;;;;27.83;19.58;;;;;;;26.88;55.25;93138.34;5053814;28;20293;-84
2023/06/21 08:27:58;;;;;;;25.50;20.27;;;;;;;27.11;53.42;93149.69;5048900;28;20197;-82
2023/06/21 08:30:24;;;;;;;24.83;19.25;;;;;;;27.05;55.47;93151.16;5047420;28;20281;-83
2023/06/21 08:32:50;;;;;;;22.20;17.98;;;;;;;26.91;55.64;93151.81;5055687;28;20277;-81
2023/06/21 08:35:16;;;;;;;25.23;18.13;;;;;;;26.59;58.88;93132.63;5052813;28;20226;-83
2023/06/21 08:38:02;;;;;;;27.00;20.02;;;;;;;26.65;56.27;93154.53;5052915;28;20205;-82
2023/06/21 08:40:32;;;;;;;21.55;19.25;;;;;;;26.51;57.85;93160.47;5050591;28;20262;-83
2023/06/21 08:42:58;;;;;;;23.05;19.73;;;;;;;26.76;55.48;93146.66;5035207;28;20249;-83
2023/06/21 08:45:23;;;;;;;20.40;18.25;;;;;;;27.29;55.30;93154.13;5048827;28;20214;-80
2023/06/21 08:47:51;;;;;;;19.27;17.45;;;;;;;26.92;55.81;93155.22;5054552;28;20243;-73
2023/06/21 08:50:18;;;;;;;21.20;18.13;;;;;;;27.45;53.70;93153.88;5050520;28;20226;-75
2023/06/21 08:52:45;;;;;;;17.23;15.52;;;;;;;27.16;57.29;93149.38;5044736;28;20204;-73
2023/06/21 08:55:13;;;;;;;19.33;17.13;;;;;;;26.89;57.94;93139.88;5051530;28;20304;-73
2023/06/21 08:57:41;;;;;;;19.05;17.17;;;;;;;27.35;52.48;93146.53;5053888;28;20186;-74
2023/06/21 09:00:30;;;;;;;19.33;17.33;;;;;;;27.04;54.84;93131.63;5052798;28;20221;-73
2023/06/21 09:03:09;;;;;;;17.27;15.68;;;;;;;26.73;50.62;93138.19;5053510;28;20189;-73
2023/06/21 09:05:42;;;;;;;18.08;16.15;;;;;;;27.04;52.60;93145.03;5052375;28;20221;-73
2023/06/21 09:08:07;;;;;;;27.20;18.35;;;;;;;26.96;55.27;93145.34;5052770;28;20641;-72
2023/06/21 09:10:34;;;;;;;19.13;17.33;;;;;;;27.12;53.30;93143.19;5051747;28;20225;-71
2023/06/21 09:13:02;;;;;;;17.75;14.88;;;;;;;27.26;53.05;93148.72;5064330;28;20194;-71
2023/06/21 09:15:29;;;;;;;17.70;14.85;;;;;;;27.21;52.52;93125.66;5052428;28;20221;-78
2023/06/21 09:17:56;;;;;;;15.80;14.25;;;;;;;27.36;50.32;93143.47;5052899;28;20264;-78
2023/06/21 09:20:27;;;;;;;16.88;15.38;;;;;;;27.63;51.77;93136.81;5050696;28;20221;-77
2023/06/21 09:22:52;;;;;;;17.35;14.93;;;;;;;27.70;48.24;93136.88;5052486;28;20200;-78
2023/06/21 09:25:18;;;;;;;17.73;15.82;;;;;;;26.99;47.87;93134.63;5051410;28;20226;-78
2023/06/21 09:27:44;;;;;;;15.55;13.98;;;;;;;27.56;48.41;93142.13;5052544;28;20261;-77
2023/06/21 09:30:10;;;;;;;17.10;15.50;;;;;;;27.71;47.23;93148.34;5051821;28;20245;-78
2023/06/21 09:32:35;;;;;;;17.85;15.98;;;;;;;26.71;49.97;93135.09;5053739;28;20174;-77
2023/06/21 09:35:01;;;;;;;17.75;15.68;;;;;;;27.19;51.78;93143.28;5052641;28;20226;-70
2023/06/21 09:37:34;;;;;;;18.73;15.32;;;;;;;27.54;47.21;93143.63;5053533;28;20178;-71
2023/06/21 09:39:59;;;;;;;17.30;15.65;;;;;;;27.75;47.96;93138.44;5052842;28;20230;-71
2023/06/21 09:42:28;;;;;;;16.60;15.02;;;;;;;27.59;48.27;93140.59;5053327;28;20182;-71
2023/06/21 09:44:54;;;;;;;17.38;15.45;;;;;;;27.75;48.28;93143.81;5052934;28;20218;-71
2023/06/21 09:47:20;;;;;;;16.48;15.00;;;;;;;28.01;46.18;93149.00;5051388;28;20193;-71
2023/06/21 09:49:49;;;;;;;16.65;15.05;;;;;;;27.54;47.73;93146.31;5051093;28;20286;-71
2023/06/21 09:52:15;;;;;;;15.85;14.27;;;;;;;27.38;46.80;93141.19;5051565;28;20178;-78
2023/06/21 09:54:41;;;;;;;16.42;14.85;;;;;;;27.59;49.51;93140.59;5049671;28;20222;-76
2023/06/21 09:57:07;;;;;;;16.65;15.15;;;;;;;27.45;45.04;93135.13;5051300;28;20757;-77
2023/06/21 09:59:36;;;;;;;16.15;14.57;;;;;;;28.10;43.69;93144.06;5051589;28;20229;-76
2023/06/21 10:02:02;;;;;;;15.88;14.45;;;;;;;27.98;46.58;93147.06;5050752;28;20197;-76
2023/06/21 10:04:28;;;;;;;14.95;13.63;;;;;;;28.30;43.78;93145.34;5051120;28;20234;-73
2023/06/21 10:06:56;;;;;;;16.17;14.43;;;;;;;27.92;46.30;93121.72;5052395;28;20190;-72
2023/06/21 10:09:22;;;;;;;17.55;15.70;;;;;;;27.76;45.88;93139.97;5052692;28;20228;-72
2023/06/21 10:11:50;;;;;;;15.68;14.20;;;;;;;28.00;44.53;93144.78;5053128;28;20182;-72
2023/06/21 10:14:20;;;;;;;15.90;14.32;;;;;;;28.54;43.88;93147.44;5052074;28;20186;-72
2023/06/21 10:16:50;;;;;;;15.77;14.27;;;;;;;28.20;44.17;93138.75;5044541;28;20187;-71
2023/06/21 10:19:25;;;;;;;16.42;14.85;;;;;;;28.12;44.65;93123.00;5042460;28;20219;-70
2023/06/21 10:22:07;;;;;;;16.27;14.80;;;;;;;27.71;46.20;93137.63;5050137;28;20202;-71
2023/06/21 10:24:46;;;;;;;14.80;13.50;;;;;;;28.35;42.53;93145.00;5051735;28;20298;-71
2023/06/21 10:27:12;;;;;;;19.05;14.52;;;;;;;28.19;40.23;93136.44;5053042;28;20215;-70
2023/06/21 10:29:42;;;;;;;16.00;14.65;;;;;;;28.05;41.32;93141.72;5049145;28;20229;-68
2023/06/21 10:32:08;;;;;;;16.77;14.40;;;;;;;27.81;45.96;93139.63;5047003;28;20197;-69
2023/06/21 10:35:03;;;;;;;16.40;14.80;;;;;;;28.17;43.76;93133.41;5041741;28;20237;-69
2023/06/21 10:37:40;;;;;;;14.57;13.40;;;;;;;28.18;43.77;93134.91;5045198;28;20202;-72
2023/06/21 10:40:07;;;;;;;16.25;14.52;;;;;;;27.84;43.43;93098.63;5051000;28;20230;-69
2023/06/21 10:42:33;;;;;;;15.15;13.63;;;;;;;28.42;43.37;93142.38;5051292;28;20205;-71
2023/06/21 10:44:59;;;;;;;14.63;13.35;;;;;;;28.06;45.31;93136.00;5052047;28;20267;-70
2023/06/21 10:47:26;;;;;;;14.30;13.07;;;;;;;28.33;39.99;93146.53;5052618;28;20183;-71
2023/06/21 10:49:56;;;;;;;15.07;13.60;;;;;;;28.58;40.32;93137.47;5051720;28;20236;-71
2023/06/21 10:52:23;;;;;;;14.73;13.23;;;;;;;28.66;39.93;93133.66;5051228;28;20245;-70
2023/06/21 10:54:49;;;;;;;13.77;12.38;;;;;;;28.12;40.57;93131.06;5050802;28;20241;-71
2023/06/21 10:57:16;;;;;;;14.45;13.10;;;;;;;28.43;40.05;93145.81;5050035;28;20182;-73
2023/06/21 10:59:43;;;;;;;15.00;13.63;;;;;;;28.74;42.87;93143.31;5051096;28;20226;-73
2023/06/21 11:02:08;;;;;;;14.60;13.25;;;;;;;28.85;39.90;93146.03;5050574;28;20186;-70
2023/06/21 11:05:11;;;;;;;14.75;13.45;;;;;;;28.78;40.45;93146.75;5036851;28;20257;-75
2023/06/21 11:07:37;;;;;;;14.52;13.13;;;;;;;28.61;41.20;93146.72;5049839;28;20190;-78
2023/06/21 11:10:06;;;;;;;14.52;12.93;;;;;;;28.34;42.36;93105.84;5051063;28;20243;-78
2023/06/21 11:12:34;;;;;;;13.40;12.20;;;;;;;29.05;39.32;93147.22;5051143;28;20220;-78
2023/06/21 11:15:00;;;;;;;14.90;13.35;;;;;;;28.59;40.97;93128.28;5050420;28;20278;-77
2023/06/21 11:17:26;;;;;;;13.50;12.30;;;;;;;28.28;41.57;93118.09;5051747;28;20201;-78